Nearby METAR Reports

 

KFNL - Ft Collins/Lovel, Colorado, USA
Distance from station: NW 10mi, 16km
Updated: Mon, 24-Sep-2018 10:05am MDT
Few Clouds
Few Clouds
 Wind from S
Wind: S 16 mph , 26 km/h
Temperature: 64°F , 18°C
Dew Point: 45°F , 7°C
Humidity: 49%
Barometer: 29.96 inHg , 1014.6 hPa
Clouds: Few Clouds
Visibility: 10 miles , 16 km
Cloud details: Few Clouds 12000 ft
2018/09/24 16:05 KFNL 241605Z AUTO 19014KT 10SM FEW120 18/07 A2996 RMK AO2 WSHFT 1545 PNO $
KGXY - Greeley/Weld, Colorado, USA
Distance from station: ENE 14mi, 23km
Updated: Mon, 24-Sep-2018 9:56am MDT
Clear
Clear
 Wind from SSW
Wind: SSW 14 mph , 22 km/h
Temperature: 63°F , 17°C
Dew Point: 45°F , 7°C
Humidity: 52%
Barometer: 29.95 inHg , 1014.2 hPa
Clouds: Clear
Visibility: 10 miles , 16 km
2018/09/24 15:56 KGXY 241556Z 21012KT 10SM CLR 17/07 A2995 RMK AO2 RAB12E32 SLP112 P0000 T01720072
 
KLMO - Longmont/Vbrand, Colorado, USA
Distance from station: SW 20mi, 32km
Updated: Mon, 24-Sep-2018 10:15am MDT
Partly cloudy
Partly cloudy
 Wind from SSE
Wind: SSE 7 mph , 11 km/h
Temperature: 70°F , 21°C
Dew Point: 43°F , 6°C
Humidity: 38%
Barometer: 29.99 inHg , 1015.6 hPa
Clouds: Partly cloudy
Visibility: 10 miles , 16 km
Cloud details: Partly cloudy 9000 ft
Partly cloudy 12000 ft
2018/09/24 16:15 KLMO 241615Z AUTO 16006KT 130V190 10SM SCT090 SCT120 21/06 A2999 RMK AO2 T02050055
KEIK - Erie Muni, Colorado, USA
Distance from station: SSW 25mi, 40km
Updated: Mon, 24-Sep-2018 10:12am MDT
Clear
Clear
 Wind from SSW
Wind: SSW 12 mph , 19 km/h, Gust: 16 mph , 26 km/h
Temperature: 68°F , 20°C
Dew Point: 39°F , 4°C
Humidity: 35%
Barometer: 30.05 inHg , 1017.6 hPa
Clouds: Clear
Visibility: 10 miles , 16 km
2018/09/24 16:12 KEIK 241612Z AUTO 20010G14KT 10SM CLR 20/04 A3005 RMK AO2 LTG DSNT SW T01950041
 
KBDU - Boulder Muni, Colorado, USA
Distance from station: SW 29mi, 47km
Updated: Mon, 24-Sep-2018 10:12am MDT
Mostly cloudy
Mostly cloudy
 Wind from S
Wind: S 8 mph , 13 km/h
Temperature: 68°F , 20°C
Dew Point: 39°F , 4°C
Humidity: 35%
Barometer: 29.99 inHg , 1015.6 hPa
Clouds: Mostly cloudy
Visibility: 10 miles , 16 km
Cloud details: Partly cloudy 4500 ft
Partly cloudy 5000 ft
Mostly cloudy 10000 ft
2018/09/24 16:12 KBDU 241612Z AUTO 19007KT 10SM SCT045 SCT050 BKN100 20/04 A2999 RMK AO2 LTG DSNT W
KBJC - Broomfield/Jeffc, Colorado, USA
Distance from station: SSW 33mi, 54km
Updated: Mon, 24-Sep-2018 9:45am MDT
Mostly cloudy
Mostly cloudy
 Wind from SSE
Wind: SSE 12 mph , 19 km/h
Temperature: 61°F , 16°C
Dew Point: 41°F , 5°C
Humidity: 48%
Barometer: 30.03 inHg , 1016.9 hPa
Clouds: Mostly cloudy
Visibility: 30 miles , 48 km
Cloud details: Partly cloudy 12000 ft
Mostly cloudy 20000 ft
2018/09/24 15:45 KBJC 241545Z 15010KT 30SM SCT120 BKN200 16/05 A3003
 
KDEN - Denver (dia), Colorado, USA
Distance from station: SSE 37mi, 59km
Updated: Mon, 24-Sep-2018 9:53am MDT
Mostly cloudy
Mostly cloudy
 Wind from S
Wind: S 10 mph , 17 km/h
Temperature: 63°F , 17°C
Dew Point: 39°F , 4°C
Humidity: 42%
Barometer: 30.02 inHg , 1016.6 hPa
Clouds: Mostly cloudy
Visibility: 10 miles , 16 km
Cloud details: Few Clouds 10000 ft
Mostly cloudy 13000 ft
Mostly cloudy 22000 ft
2018/09/24 15:53 KDEN 241553Z 17009KT 10SM FEW100 BKN130 BKN220 17/04 A3002 RMK AO2 SLP096 T01720044
KFTG - Denver F. Range, Colorado, USA
Distance from station: SSE 43mi, 69km
Updated: Mon, 24-Sep-2018 9:55am MDT
Mostly cloudy
Mostly cloudy
 Wind from S
Wind: S 7 mph , 11 km/h
Temperature: 63°F , 17°C
Dew Point: 43°F , 6°C
Humidity: 49%
Barometer: 30.03 inHg , 1016.9 hPa
Clouds: Mostly cloudy
Visibility: 10 miles , 16 km
Cloud details: Partly cloudy 12000 ft
Mostly cloudy 15000 ft
Mostly cloudy 25000 ft
2018/09/24 15:55 KFTG 241555Z 17006KT 10SM SCT120 BKN150 BKN250 17/06 A3003
 
KBKF - Buckley Angb/Den, Colorado, USA
Distance from station: S 44mi, 71km
Updated: Mon, 24-Sep-2018 8:58am MDT
NOT Current
Mostly cloudy
Mostly cloudy
 Wind from SSE
Wind: SSE 9 mph , 15 km/h
Temperature: 55°F , 13°C
Dew Point: 43°F , 6°C
Humidity: 63%
Barometer: 30.04 inHg , 1017.3 hPa
Clouds: Mostly cloudy
Visibility: 10 miles , 16 km
Cloud details: Few Clouds 9000 ft
Mostly cloudy 14000 ft
Mostly cloudy 22000 ft
2018/09/24 14:58 KBKF 241458Z 16008KT 10SM FEW090 BKN140 BKN220 13/06 A3004 RMK AO2A SLP115 T01310055 51010
KCAG - Craig, Colorado, USA
Distance from station: ESE 227mi, 365km
Updated: Mon, 24-Sep-2018 9:53am MDT
Clear
Clear
 Wind from calm
Wind: Calm
Temperature: 59°F , 15°C
Dew Point: 48°F , 9°C
Humidity: 68%
Barometer: 30.06 inHg , 1017.9 hPa
Clouds: Clear
Visibility: 10 miles , 16 km
2018/09/24 15:53 KCAG 241553Z AUTO 00000KT 10SM CLR 15/09 A3006 RMK AO2 SLP114 T01500089
 
KHDN - Hayden/Yampa, Colorado, USA
Distance from station: E 211mi, 339km
Updated: Mon, 24-Sep-2018 9:56am MDT
Clear
Clear
 Wind from ESE
Wind: ESE 7 mph , 11 km/h
Temperature: 55°F , 13°C
Dew Point: 45°F , 7°C
Humidity: 67%
Barometer: 30.09 inHg , 1019 hPa
Clouds: Clear
Visibility: 10 miles , 16 km
2018/09/24 15:56 KHDN 241556Z AUTO 12006KT 10SM CLR 13/07 A3009 RMK AO2 SLP127 T01330072
KSBS - Steamboat Spring, Colorado, USA
Distance from station: E 186mi, 299km
Updated: Mon, 24-Sep-2018 10:15am MDT
Clear
Clear
 Wind from calm
Wind: Calm
Temperature: 54°F , 12°C
Dew Point: 45°F , 7°C
Humidity: 72%
Barometer: 30.09 inHg , 1019 hPa
Clouds: Clear
Visibility: 10 miles , 16 km
2018/09/24 16:15 KSBS 241615Z AUTO 00000KT 10SM CLR 12/07 A3009 RMK AO1 T01230070
 
KDWX - Dixon, Wyoming, USA
Distance from station: N 278mi, 447km
Updated: Mon, 24-Sep-2018 10:15am MDT
Clear
Clear
 Wind from SW
Wind: SW 7 mph , 11 km/h
Temperature: 59°F , 15°C
Dew Point: 45°F , 7°C
Humidity: 59%
Barometer: 30.09 inHg , 1019 hPa
Clouds: Clear
Visibility: 10 miles , 16 km
2018/09/24 16:15 KDWX 241615Z AUTO 22006KT 10SM CLR 15/07 A3009 RMK AO2 T01520071
KEEO - Meeker, Colorado, USA
Distance from station: SSW 269mi, 433km
Updated: Mon, 24-Sep-2018 9:53am MDT
Clear
Clear
 Wind from calm
Wind: Calm
Temperature: 59°F , 15°C
Dew Point: 46°F , 8°C
Humidity: 63%
Barometer: 30.08 inHg , 1018.6 hPa
Clouds: Clear
Visibility: 10 miles , 16 km
2018/09/24 15:53 KEEO 241553Z AUTO 00000KT 10SM CLR 15/08 A3008 RMK AO2 SLP109 T01500078